sensor_id;sensor_type;location;lat;lon;timestamp;pressure;altitude;pressure_sealevel;temperature;humidity
18569;BME280;14780;48.316;-1.050;2023-11-19T00:00:06;99063.00;;;24.52;48.42
18569;BME280;14780;48.316;-1.050;2023-11-19T00:02:55;99075.06;;;24.51;48.40
18569;BME280;14780;48.316;-1.050;2023-11-19T00:05:40;99071.22;;;24.52;48.42
18569;BME280;14780;48.316;-1.050;2023-11-19T00:08:26;99066.84;;;24.56;48.51
18569;BME280;14780;48.316;-1.050;2023-11-19T00:11:11;99066.00;;;24.51;48.36
18569;BME280;14780;48.316;-1.050;2023-11-19T00:13:59;99073.94;;;24.47;48.43
18569;BME280;14780;48.316;-1.050;2023-11-19T00:16:44;99064.94;;;24.47;48.49
18569;BME280;14780;48.316;-1.050;2023-11-19T00:19:28;99075.06;;;24.51;48.36
18569;BME280;14780;48.316;-1.050;2023-11-19T00:22:13;99079.41;;;24.47;48.53
18569;BME280;14780;48.316;-1.050;2023-11-19T00:24:58;99076.16;;;24.45;48.42
18569;BME280;14780;48.316;-1.050;2023-11-19T00:27:43;99076.69;;;24.47;48.43
18569;BME280;14780;48.316;-1.050;2023-11-19T00:30:30;99082.72;;;24.39;48.82
18569;BME280;14780;48.316;-1.050;2023-11-19T00:33:15;99080.53;;;24.51;48.45
18569;BME280;14780;48.316;-1.050;2023-11-19T00:36:00;99081.63;;;24.50;48.37
18569;BME280;14780;48.316;-1.050;2023-11-19T00:38:44;99079.16;;;24.49;48.32
18569;BME280;14780;48.316;-1.050;2023-11-19T00:41:29;99075.88;;;24.42;48.50
18569;BME280;14780;48.316;-1.050;2023-11-19T00:44:13;99075.88;;;24.47;48.30
18569;BME280;14780;48.316;-1.050;2023-11-19T00:46:58;99063.31;;;24.46;48.34
18569;BME280;14780;48.316;-1.050;2023-11-19T00:49:44;99062.75;;;24.49;48.18
18569;BME280;14780;48.316;-1.050;2023-11-19T00:52:28;99061.38;;;24.46;48.40
18569;BME280;14780;48.316;-1.050;2023-11-19T00:55:13;99060.84;;;24.49;48.26
18569;BME280;14780;48.316;-1.050;2023-11-19T00:57:58;99058.63;;;24.46;48.41
18569;BME280;14780;48.316;-1.050;2023-11-19T01:00:43;99066.03;;;24.46;48.39
18569;BME280;14780;48.316;-1.050;2023-11-19T01:03:28;99066.31;;;24.49;48.31
18569;BME280;14780;48.316;-1.050;2023-11-19T01:06:12;99064.66;;;24.48;48.22
18569;BME280;14780;48.316;-1.050;2023-11-19T01:08:59;99074.50;;;24.39;48.24
18569;BME280;14780;48.316;-1.050;2023-11-19T01:11:43;99078.31;;;24.48;48.26
18569;BME280;14780;48.316;-1.050;2023-11-19T01:14:29;99083.81;;;24.43;48.27
18569;BME280;14780;48.316;-1.050;2023-11-19T01:17:15;99090.94;;;24.44;48.24
18569;BME280;14780;48.316;-1.050;2023-11-19T01:20:00;99087.09;;;24.45;48.28
18569;BME280;14780;48.316;-1.050;2023-11-19T01:22:45;99089.81;;;24.45;48.06
18569;BME280;14780;48.316;-1.050;2023-11-19T01:25:29;99090.34;;;24.47;48.19
18569;BME280;14780;48.316;-1.050;2023-11-19T01:28:14;99098.56;;;24.52;48.00
18569;BME280;14780;48.316;-1.050;2023-11-19T01:30:58;99098.56;;;24.52;48.10
18569;BME280;14780;48.316;-1.050;2023-11-19T01:33:43;99095.84;;;24.52;47.95
18569;BME280;14780;48.316;-1.050;2023-11-19T01:36:28;99094.19;;;24.51;48.03
18569;BME280;14780;48.316;-1.050;2023-11-19T01:39:12;99093.94;;;24.43;48.06
18569;BME280;14780;48.316;-1.050;2023-11-19T01:42:00;99101.88;;;24.49;48.10
18569;BME280;14780;48.316;-1.050;2023-11-19T01:44:58;99084.88;;;24.47;48.03
18569;BME280;14780;48.316;-1.050;2023-11-19T01:47:42;99096.94;;;24.51;48.09
18569;BME280;14780;48.316;-1.050;2023-11-19T01:50:28;99096.94;;;24.46;48.00
18569;BME280;14780;48.316;-1.050;2023-11-19T01:53:13;99110.88;;;24.50;47.89
18569;BME280;14780;48.316;-1.050;2023-11-19T01:55:58;99103.22;;;24.42;48.09
18569;BME280;14780;48.316;-1.050;2023-11-19T01:58:44;99098.03;;;24.45;48.06
18569;BME280;14780;48.316;-1.050;2023-11-19T02:01:30;99102.94;;;24.48;47.88
18569;BME280;14780;48.316;-1.050;2023-11-19T02:04:17;99102.41;;;24.41;48.08
18569;BME280;14780;48.316;-1.050;2023-11-19T02:07:02;99103.50;;;24.45;47.94
18569;BME280;14780;48.316;-1.050;2023-11-19T02:09:47;99112.25;;;24.47;47.84
18569;BME280;14780;48.316;-1.050;2023-11-19T02:12:32;99098.03;;;24.45;47.76
18569;BME280;14780;48.316;-1.050;2023-11-19T02:15:20;99096.13;;;24.36;47.90
18569;BME280;14780;48.316;-1.050;2023-11-19T02:18:23;99100.22;;;24.38;47.65
18569;BME280;14780;48.316;-1.050;2023-11-19T02:21:08;99094.22;;;24.36;47.93
18569;BME280;14780;48.316;-1.050;2023-11-19T02:23:55;99092.59;;;24.35;47.92
18569;BME280;14780;48.316;-1.050;2023-11-19T02:27:08;99089.81;;;24.40;47.72
18569;BME280;14780;48.316;-1.050;2023-11-19T02:29:55;99090.38;;;24.37;47.70
18569;BME280;14780;48.316;-1.050;2023-11-19T02:32:41;99088.75;;;24.36;47.93
18569;BME280;14780;48.316;-1.050;2023-11-19T02:35:26;99073.97;;;24.37;47.77
18569;BME280;14780;48.316;-1.050;2023-11-19T02:38:11;99073.72;;;24.39;47.86
18569;BME280;14780;48.316;-1.050;2023-11-19T02:40:59;99070.41;;;24.42;47.69
18569;BME280;14780;48.316;-1.050;2023-11-19T02:43:46;99082.72;;;24.44;47.69
18569;BME280;14780;48.316;-1.050;2023-11-19T02:46:33;99087.38;;;24.39;47.66
18569;BME280;14780;48.316;-1.050;2023-11-19T02:49:17;99089.56;;;24.42;47.60
18569;BME280;14780;48.316;-1.050;2023-11-19T02:52:02;99081.91;;;24.39;47.78
18569;BME280;14780;48.316;-1.050;2023-11-19T02:54:48;99080.50;;;24.41;47.69
18569;BME280;14780;48.316;-1.050;2023-11-19T02:57:33;99083.28;;;24.36;47.84
18569;BME280;14780;48.316;-1.050;2023-11-19T03:00:22;99073.16;;;24.37;47.78
18569;BME280;14780;48.316;-1.050;2023-11-19T03:03:29;99076.72;;;24.42;47.66
18569;BME280;14780;48.316;-1.050;2023-11-19T03:06:22;99071.78;;;24.44;47.47
18569;BME280;14780;48.316;-1.050;2023-11-19T03:09:07;99071.78;;;24.39;47.53
18569;BME280;14780;48.316;-1.050;2023-11-19T03:11:54;99084.91;;;24.42;47.34
18569;BME280;14780;48.316;-1.050;2023-11-19T03:14:39;99081.09;;;24.38;47.66
18569;BME280;14780;48.316;-1.050;2023-11-19T03:17:25;99080.78;;;24.45;47.43
18569;BME280;14780;48.316;-1.050;2023-11-19T03:20:11;99083.81;;;24.43;47.39
18569;BME280;14780;48.316;-1.050;2023-11-19T03:23:02;99076.72;;;24.42;47.39
18569;BME280;14780;48.316;-1.050;2023-11-19T03:25:47;99074.50;;;24.44;47.50
18569;BME280;14780;48.316;-1.050;2023-11-19T03:28:32;99073.41;;;24.40;47.46
18569;BME280;14780;48.316;-1.050;2023-11-19T03:31:17;99077.25;;;24.44;47.34
18569;BME280;14780;48.316;-1.050;2023-11-19T03:34:02;99073.97;;;24.42;47.39
18569;BME280;14780;48.316;-1.050;2023-11-19T03:36:47;99068.50;;;24.42;47.29
18569;BME280;14780;48.316;-1.050;2023-11-19T03:39:33;99070.16;;;24.43;47.42
18569;BME280;14780;48.316;-1.050;2023-11-19T03:42:19;99072.03;;;24.43;47.54
18569;BME280;14780;48.316;-1.050;2023-11-19T03:45:08;99060.84;;;24.44;47.28
18569;BME280;14780;48.316;-1.050;2023-11-19T03:47:53;99058.09;;;24.44;47.18
18569;BME280;14780;48.316;-1.050;2023-11-19T03:50:38;99070.16;;;24.43;47.42
18569;BME280;14780;48.316;-1.050;2023-11-19T03:53:22;99066.84;;;24.46;47.13
18569;BME280;14780;48.316;-1.050;2023-11-19T03:56:09;99064.41;;;24.40;47.28
18569;BME280;14780;48.316;-1.050;2023-11-19T03:58:54;99065.22;;;24.45;47.36
18569;BME280;14780;48.316;-1.050;2023-11-19T04:01:39;99068.78;;;24.41;47.38
18569;BME280;14780;48.316;-1.050;2023-11-19T04:04:23;99073.41;;;24.40;47.24
18569;BME280;14780;48.316;-1.050;2023-11-19T04:07:08;99076.72;;;24.42;47.18
18569;BME280;14780;48.316;-1.050;2023-11-19T04:09:53;99083.81;;;24.38;47.22
18569;BME280;14780;48.316;-1.050;2023-11-19T04:12:38;99073.97;;;24.37;47.18
18569;BME280;14780;48.316;-1.050;2023-11-19T04:15:22;99072.59;;;24.40;47.27
18569;BME280;14780;48.316;-1.050;2023-11-19T04:18:07;99081.38;;;24.32;47.20
18569;BME280;14780;48.316;-1.050;2023-11-19T04:20:53;99074.53;;;24.29;47.16
18569;BME280;14780;48.316;-1.050;2023-11-19T04:23:38;99086.53;;;24.33;47.32
18569;BME280;14780;48.316;-1.050;2023-11-19T04:26:22;99070.97;;;24.34;47.22
18569;BME280;14780;48.316;-1.050;2023-11-19T04:29:08;99078.91;;;24.30;47.13
18569;BME280;14780;48.316;-1.050;2023-11-19T04:31:53;99087.66;;;24.32;47.14
18569;BME280;14780;48.316;-1.050;2023-11-19T04:34:38;99088.22;;;24.29;47.07
18569;BME280;14780;48.316;-1.050;2023-11-19T04:37:23;99089.03;;;24.35;47.05
18569;BME280;14780;48.316;-1.050;2023-11-19T04:40:08;99090.91;;;24.34;47.11
18569;BME280;14780;48.316;-1.050;2023-11-19T04:42:54;99094.22;;;24.31;47.00
18569;BME280;14780;48.316;-1.050;2023-11-19T04:45:39;99096.94;;;24.31;46.96
18569;BME280;14780;48.316;-1.050;2023-11-19T04:48:24;99088.47;;;24.28;47.11
18569;BME280;14780;48.316;-1.050;2023-11-19T04:51:09;99093.69;;;24.29;46.88
18569;BME280;14780;48.316;-1.050;2023-11-19T04:53:54;99093.13;;;24.32;46.92
18569;BME280;14780;48.316;-1.050;2023-11-19T04:56:39;99094.75;;;24.33;46.88
18569;BME280;14780;48.316;-1.050;2023-11-19T04:59:24;99098.31;;;24.29;47.08
18569;BME280;14780;48.316;-1.050;2023-11-19T05:02:09;99096.13;;;24.31;46.86
18569;BME280;14780;48.316;-1.050;2023-11-19T05:04:54;99089.56;;;24.32;46.74
18569;BME280;14780;48.316;-1.050;2023-11-19T05:07:38;99090.94;;;24.29;46.94
18569;BME280;14780;48.316;-1.050;2023-11-19T05:10:23;99086.00;;;24.26;47.03
18569;BME280;14780;48.316;-1.050;2023-11-19T05:13:09;99089.28;;;24.33;46.72
18569;BME280;14780;48.316;-1.050;2023-11-19T05:15:55;99087.66;;;24.27;46.75
18569;BME280;14780;48.316;-1.050;2023-11-19T05:18:40;99102.16;;;24.28;46.80
18569;BME280;14780;48.316;-1.050;2023-11-19T05:21:25;99103.50;;;24.25;46.78
18569;BME280;14780;48.316;-1.050;2023-11-19T05:24:09;99104.59;;;24.19;46.91
18569;BME280;14780;48.316;-1.050;2023-11-19T05:26:54;99105.44;;;24.20;46.73
18569;BME280;14780;48.316;-1.050;2023-11-19T05:29:38;99104.06;;;24.22;46.82
18569;BME280;14780;48.316;-1.050;2023-11-19T05:32:24;99096.41;;;24.24;46.79
18569;BME280;14780;48.316;-1.050;2023-11-19T05:35:09;99104.34;;;24.21;46.90
18569;BME280;14780;48.316;-1.050;2023-11-19T05:37:54;99107.34;;;24.24;46.75
18569;BME280;14780;48.316;-1.050;2023-11-19T05:40:41;99100.50;;;24.27;46.56
18569;BME280;14780;48.316;-1.050;2023-11-19T05:43:25;99097.50;;;24.23;46.63
18569;BME280;14780;48.316;-1.050;2023-11-19T05:46:10;99101.88;;;24.19;46.81
18569;BME280;14780;48.316;-1.050;2023-11-19T05:48:58;99111.72;;;24.20;46.59
18569;BME280;14780;48.316;-1.050;2023-11-19T05:51:42;99116.09;;;24.21;46.64
18569;BME280;14780;48.316;-1.050;2023-11-19T05:54:27;99120.47;;;24.22;46.61
18569;BME280;14780;48.316;-1.050;2023-11-19T05:57:12;99128.38;;;24.24;46.48
18569;BME280;14780;48.316;-1.050;2023-11-19T05:59:58;99117.19;;;24.25;46.48
18569;BME280;14780;48.316;-1.050;2023-11-19T06:02:44;99119.38;;;24.18;46.57
18569;BME280;14780;48.316;-1.050;2023-11-19T06:05:29;99115.28;;;24.26;46.52
18569;BME280;14780;48.316;-1.050;2023-11-19T06:08:14;99114.44;;;24.25;46.44
18569;BME280;14780;48.316;-1.050;2023-11-19T06:10:59;99121.56;;;24.26;46.49
18569;BME280;14780;48.316;-1.050;2023-11-19T06:13:45;99118.56;;;24.28;46.48
18569;BME280;14780;48.316;-1.050;2023-11-19T06:16:30;99116.91;;;24.27;46.51
18569;BME280;14780;48.316;-1.050;2023-11-19T06:19:15;99122.13;;;24.28;46.50
18569;BME280;14780;48.316;-1.050;2023-11-19T06:22:00;99125.66;;;24.29;46.33
18569;BME280;14780;48.316;-1.050;2023-11-19T06:24:45;99116.09;;;24.26;46.53
18569;BME280;14780;48.316;-1.050;2023-11-19T06:27:29;99116.66;;;24.23;46.43
18569;BME280;14780;48.316;-1.050;2023-11-19T06:30:14;99121.03;;;24.29;46.29
18569;BME280;14780;48.316;-1.050;2023-11-19T06:32:59;99120.75;;;24.26;46.22
18569;BME280;14780;48.316;-1.050;2023-11-19T06:35:44;99122.66;;;24.30;46.32
18569;BME280;14780;48.316;-1.050;2023-11-19T06:38:29;99120.19;;;24.29;46.40
18569;BME280;14780;48.316;-1.050;2023-11-19T06:41:14;99134.13;;;24.27;46.46
18569;BME280;14780;48.316;-1.050;2023-11-19T06:43:58;99126.75;;;24.23;46.31
18569;BME280;14780;48.316;-1.050;2023-11-19T06:46:44;99117.19;;;24.25;46.36
18569;BME280;14780;48.316;-1.050;2023-11-19T06:49:29;99117.72;;;24.32;46.22
18569;BME280;14780;48.316;-1.050;2023-11-19T06:52:13;99117.72;;;24.27;46.40
18569;BME280;14780;48.316;-1.050;2023-11-19T06:54:58;99114.19;;;24.27;46.31
18569;BME280;14780;48.316;-1.050;2023-11-19T06:57:43;99116.66;;;24.28;46.38
18569;BME280;14780;48.316;-1.050;2023-11-19T07:00:27;99124.03;;;24.33;46.25
18569;BME280;14780;48.316;-1.050;2023-11-19T07:03:12;99123.19;;;24.27;46.38
18569;BME280;14780;48.316;-1.050;2023-11-19T07:05:57;99121.56;;;24.31;46.21
18569;BME280;14780;48.316;-1.050;2023-11-19T07:08:42;99121.56;;;24.26;46.22
18569;BME280;14780;48.316;-1.050;2023-11-19T07:11:31;99125.91;;;24.27;46.20
18569;BME280;14780;48.316;-1.050;2023-11-19T07:14:16;99121.56;;;24.26;46.22
18569;BME280;14780;48.316;-1.050;2023-11-19T07:17:00;99122.13;;;24.23;46.25
18569;BME280;14780;48.316;-1.050;2023-11-19T07:19:45;99127.31;;;24.25;46.12
18569;BME280;14780;48.316;-1.050;2023-11-19T07:22:30;99137.16;;;24.26;46.22
18569;BME280;14780;48.316;-1.050;2023-11-19T07:25:15;99132.50;;;24.26;46.03
18569;BME280;14780;48.316;-1.050;2023-11-19T07:28:00;99128.38;;;24.24;46.17
18569;BME280;14780;48.316;-1.050;2023-11-19T07:30:44;99128.38;;;24.24;46.12
18569;BME280;14780;48.316;-1.050;2023-11-19T07:33:29;99130.31;;;24.18;46.16
18569;BME280;14780;48.316;-1.050;2023-11-19T07:36:14;99122.13;;;24.23;46.01
18569;BME280;14780;48.316;-1.050;2023-11-19T07:38:59;99121.28;;;24.23;46.02
18569;BME280;14780;48.316;-1.050;2023-11-19T07:41:44;99128.41;;;24.14;46.03
18569;BME280;14780;48.316;-1.050;2023-11-19T07:44:28;99130.06;;;24.10;46.27
18569;BME280;14780;48.316;-1.050;2023-11-19T07:47:13;99121.03;;;24.14;46.03
18569;BME280;14780;48.316;-1.050;2023-11-19T07:49:58;99125.66;;;24.09;46.00
18569;BME280;14780;48.316;-1.050;2023-11-19T07:52:43;99124.84;;;24.08;46.16
18569;BME280;14780;48.316;-1.050;2023-11-19T07:55:27;99137.13;;;24.01;46.17
18569;BME280;14780;48.316;-1.050;2023-11-19T07:58:12;99140.97;;;24.05;46.18
18569;BME280;14780;48.316;-1.050;2023-11-19T08:00:57;99142.31;;;23.97;46.12
18569;BME280;14780;48.316;-1.050;2023-11-19T08:03:41;99139.06;;;24.00;46.03
18569;BME280;14780;48.316;-1.050;2023-11-19T08:06:26;99145.88;;;23.98;45.98
18569;BME280;14780;48.316;-1.050;2023-11-19T08:09:11;99147.25;;;23.95;46.18
18569;BME280;14780;48.316;-1.050;2023-11-19T08:11:57;99139.84;;;24.01;45.91
18569;BME280;14780;48.316;-1.050;2023-11-19T08:14:43;99133.59;;;24.00;45.77
18569;BME280;14780;48.316;-1.050;2023-11-19T08:17:28;99130.84;;;23.95;45.75
18569;BME280;14780;48.316;-1.050;2023-11-19T08:20:13;99136.31;;;23.95;45.55
18569;BME280;14780;48.316;-1.050;2023-11-19T08:22:58;99134.13;;;23.87;45.62
18569;BME280;14780;48.316;-1.050;2023-11-19T08:25:42;99131.91;;;23.89;45.73
18569;BME280;14780;48.316;-1.050;2023-11-19T08:28:27;99143.97;;;23.93;45.78
18569;BME280;14780;48.316;-1.050;2023-11-19T08:31:13;99144.50;;;23.95;45.61
18569;BME280;14780;48.316;-1.050;2023-11-19T08:33:57;99146.69;;;23.93;45.61
18569;BME280;14780;48.316;-1.050;2023-11-19T08:36:42;99147.25;;;23.95;45.65
18569;BME280;14780;48.316;-1.050;2023-11-19T08:39:27;99149.94;;;23.85;45.58
18569;BME280;14780;48.316;-1.050;2023-11-19T08:42:12;99174.53;;;23.85;45.76
18569;BME280;14780;48.316;-1.050;2023-11-19T08:44:56;99175.66;;;23.89;45.72
18569;BME280;14780;48.316;-1.050;2023-11-19T08:47:41;99164.72;;;23.89;45.70
18569;BME280;14780;48.316;-1.050;2023-11-19T08:50:26;99169.09;;;23.95;45.53
18569;BME280;14780;48.316;-1.050;2023-11-19T08:53:10;99162.28;;;23.98;45.39
18569;BME280;14780;48.316;-1.050;2023-11-19T08:55:55;99163.09;;;23.93;45.47
18569;BME280;14780;48.316;-1.050;2023-11-19T08:58:40;99171.28;;;23.93;45.43
18569;BME280;14780;48.316;-1.050;2023-11-19T09:01:25;99166.91;;;23.97;45.32
18569;BME280;14780;48.316;-1.050;2023-11-19T09:04:10;99177.28;;;23.90;45.33
18569;BME280;14780;48.316;-1.050;2023-11-19T09:06:58;99183.03;;;23.94;45.30
18569;BME280;14780;48.316;-1.050;2023-11-19T09:09:42;99180.56;;;23.87;45.38
18569;BME280;14780;48.316;-1.050;2023-11-19T09:12:27;99195.53;;;23.80;45.60
18569;BME280;14780;48.316;-1.050;2023-11-19T09:15:12;99196.34;;;23.75;45.54
18569;BME280;14780;48.316;-1.050;2023-11-19T09:17:57;99201.84;;;23.85;45.41
18569;BME280;14780;48.316;-1.050;2023-11-19T09:20:42;99199.94;;;23.81;45.38
18569;BME280;14780;48.316;-1.050;2023-11-19T09:23:27;99198.06;;;23.86;45.14
18569;BME280;14780;48.316;-1.050;2023-11-19T09:26:17;99197.22;;;23.86;45.40
18569;BME280;14780;48.316;-1.050;2023-11-19T09:29:02;99209.47;;;23.83;45.47
18569;BME280;14780;48.316;-1.050;2023-11-19T09:31:47;99211.16;;;23.89;45.31
18569;BME280;14780;48.316;-1.050;2023-11-19T09:34:32;99201.34;;;23.93;44.94
18569;BME280;14780;48.316;-1.050;2023-11-19T09:37:17;99213.38;;;23.97;45.18
18569;BME280;14780;48.316;-1.050;2023-11-19T09:40:03;99212.81;;;23.95;45.06
18569;BME280;14780;48.316;-1.050;2023-11-19T09:42:48;99217.75;;;23.93;45.18
18569;BME280;14780;48.316;-1.050;2023-11-19T09:45:49;99225.13;;;23.93;45.09
18569;BME280;14780;48.316;-1.050;2023-11-19T09:48:36;99214.47;;;23.96;44.87
18569;BME280;14780;48.316;-1.050;2023-11-19T09:51:24;99218.84;;;23.97;44.79
18569;BME280;14780;48.316;-1.050;2023-11-19T09:54:10;99209.84;;;24.07;44.54
18569;BME280;14780;48.316;-1.050;2023-11-19T09:56:58;99210.38;;;24.09;44.81
18569;BME280;14780;48.316;-1.050;2023-11-19T09:59:48;99198.66;;;24.08;44.93
18569;BME280;14780;48.316;-1.050;2023-11-19T10:02:34;99195.94;;;24.13;44.63
18569;BME280;14780;48.316;-1.050;2023-11-19T10:05:23;99203.81;;;24.00;44.82
18569;BME280;14780;48.316;-1.050;2023-11-19T10:08:08;99203.56;;;24.01;44.66
18569;BME280;14780;48.316;-1.050;2023-11-19T10:10:55;99209.53;;;23.98;44.74
18569;BME280;14780;48.316;-1.050;2023-11-19T10:13:40;99210.63;;;23.97;44.75
18569;BME280;14780;48.316;-1.050;2023-11-19T10:16:30;99210.88;;;23.86;45.03
18569;BME280;14780;48.316;-1.050;2023-11-19T10:19:21;99200.53;;;23.93;44.76
18569;BME280;14780;48.316;-1.050;2023-11-19T10:22:06;99202.16;;;23.94;44.89
18569;BME280;14780;48.316;-1.050;2023-11-19T10:24:51;99215.59;;;24.00;44.77
18569;BME280;14780;48.316;-1.050;2023-11-19T10:27:36;99225.94;;;23.93;44.89
18569;BME280;14780;48.316;-1.050;2023-11-19T10:30:25;99214.19;;;23.93;44.72
18569;BME280;14780;48.316;-1.050;2023-11-19T10:33:12;99217.19;;;23.91;44.75
18569;BME280;14780;48.316;-1.050;2023-11-19T10:36:01;99207.34;;;23.90;44.63
18569;BME280;14780;48.316;-1.050;2023-11-19T10:38:56;99208.19;;;23.91;44.75
18569;BME280;14780;48.316;-1.050;2023-11-19T10:41:41;99206.47;;;23.85;44.79
18569;BME280;14780;48.316;-1.050;2023-11-19T10:44:33;99204.34;;;23.92;44.52
18569;BME280;14780;48.316;-1.050;2023-11-19T10:47:20;99195.59;;;23.90;44.61
18569;BME280;14780;48.316;-1.050;2023-11-19T10:50:07;99194.25;;;23.92;44.52
18569;BME280;14780;48.316;-1.050;2023-11-19T10:52:57;99207.91;;;23.97;44.52
18569;BME280;14780;48.316;-1.050;2023-11-19T10:55:47;99187.94;;;23.92;44.60
18569;BME280;14780;48.316;-1.050;2023-11-19T10:58:33;99195.59;;;23.95;44.55
18569;BME280;14780;48.316;-1.050;2023-11-19T11:01:21;99192.59;;;23.91;44.38
18569;BME280;14780;48.316;-1.050;2023-11-19T11:04:14;99189.03;;;23.91;44.52
18569;BME280;14780;48.316;-1.050;2023-11-19T11:07:02;99185.78;;;23.99;44.46
18569;BME280;14780;48.316;-1.050;2023-11-19T11:09:49;99182.50;;;24.02;44.42
18569;BME280;14780;48.316;-1.050;2023-11-19T11:12:37;99175.69;;;23.99;44.40
18569;BME280;14780;48.316;-1.050;2023-11-19T11:15:22;99189.06;;;24.01;44.45
18569;BME280;14780;48.316;-1.050;2023-11-19T11:18:09;99172.41;;;24.07;44.63
18569;BME280;14780;48.316;-1.050;2023-11-19T11:21:02;99175.44;;;24.11;44.38
18569;BME280;14780;48.316;-1.050;2023-11-19T11:23:55;99169.69;;;24.07;44.25
18569;BME280;14780;48.316;-1.050;2023-11-19T11:33:06;99163.69;;;24.20;44.69
18569;BME280;14780;48.316;-1.050;2023-11-19T11:36:17;99165.03;;;24.23;44.90
18569;BME280;14780;48.316;-1.050;2023-11-19T11:39:04;99164.75;;;24.19;44.86
18569;BME280;14780;48.316;-1.050;2023-11-19T11:45:06;99154.38;;;24.31;45.30
18569;BME280;14780;48.316;-1.050;2023-11-19T11:50:53;99160.94;;;24.35;45.65
18569;BME280;14780;48.316;-1.050;2023-11-19T11:53:38;99176.81;;;24.38;45.76
18569;BME280;14780;48.316;-1.050;2023-11-19T11:56:23;99174.06;;;24.38;45.62
18569;BME280;14780;48.316;-1.050;2023-11-19T11:59:20;99171.31;;;24.33;45.38
18569;BME280;14780;48.316;-1.050;2023-11-19T12:02:05;99160.94;;;24.40;45.74
18569;BME280;14780;48.316;-1.050;2023-11-19T12:04:53;99150.56;;;24.42;45.82
18569;BME280;14780;48.316;-1.050;2023-11-19T12:07:38;99146.44;;;24.45;45.85
18569;BME280;14780;48.316;-1.050;2023-11-19T12:10:24;99155.19;;;24.47;46.11
18569;BME280;14780;48.316;-1.050;2023-11-19T12:13:09;99156.56;;;24.49;46.05
18569;BME280;14780;48.316;-1.050;2023-11-19T12:18:43;99155.19;;;24.47;45.50
18569;BME280;14780;48.316;-1.050;2023-11-19T12:21:32;99160.41;;;24.43;45.44
18569;BME280;14780;48.316;-1.050;2023-11-19T12:24:19;99158.75;;;24.42;45.30
18569;BME280;14780;48.316;-1.050;2023-11-19T12:27:04;99150.56;;;24.37;45.31
18569;BME280;14780;48.316;-1.050;2023-11-19T12:29:51;99162.28;;;24.38;45.38
18569;BME280;14780;48.316;-1.050;2023-11-19T12:32:40;99148.34;;;24.39;45.33
18569;BME280;14780;48.316;-1.050;2023-11-19T12:35:25;99142.59;;;24.36;45.18
18569;BME280;14780;48.316;-1.050;2023-11-19T12:38:25;99154.91;;;24.33;45.11
18569;BME280;14780;48.316;-1.050;2023-11-19T12:41:10;99154.38;;;24.31;44.87
18569;BME280;14780;48.316;-1.050;2023-11-19T12:44:11;99151.66;;;24.36;45.10
18569;BME280;14780;48.316;-1.050;2023-11-19T12:47:06;99147.00;;;24.32;44.70
18569;BME280;14780;48.316;-1.050;2023-11-19T12:49:58;99136.88;;;24.32;44.88
18569;BME280;14780;48.316;-1.050;2023-11-19T12:52:58;99138.50;;;24.33;44.80
18569;BME280;14780;48.316;-1.050;2023-11-19T12:55:42;99134.97;;;24.28;44.84
18569;BME280;14780;48.316;-1.050;2023-11-19T12:58:34;99122.09;;;24.33;44.75
18569;BME280;14780;48.316;-1.050;2023-11-19T13:01:21;99115.56;;;24.29;44.65
18569;BME280;14780;48.316;-1.050;2023-11-19T13:04:20;99125.38;;;24.25;44.69
18569;BME280;14780;48.316;-1.050;2023-11-19T13:07:05;99127.88;;;24.32;44.67
18569;BME280;14780;48.316;-1.050;2023-11-19T13:09:50;99120.47;;;24.17;44.61
18569;BME280;14780;48.316;-1.050;2023-11-19T13:12:38;99123.19;;;24.37;44.54
18569;BME280;14780;48.316;-1.050;2023-11-19T13:15:23;99123.22;;;24.42;44.53
18569;BME280;14780;48.316;-1.050;2023-11-19T13:18:09;99108.69;;;24.37;44.66
18569;BME280;14780;48.316;-1.050;2023-11-19T13:20:54;99118.53;;;24.43;44.97
18569;BME280;14780;48.316;-1.050;2023-11-19T13:23:42;99110.06;;;24.39;44.90
18569;BME280;14780;48.316;-1.050;2023-11-19T13:26:27;99124.28;;;24.46;44.92
18569;BME280;14780;48.316;-1.050;2023-11-19T13:29:12;99123.75;;;24.39;45.12
18569;BME280;14780;48.316;-1.050;2023-11-19T13:31:57;99124.84;;;24.38;45.42
18569;BME280;14780;48.316;-1.050;2023-11-19T13:34:42;99126.75;;;24.48;45.00
18569;BME280;14780;48.316;-1.050;2023-11-19T13:37:28;99122.66;;;24.50;44.89
18569;BME280;14780;48.316;-1.050;2023-11-19T13:40:13;99120.44;;;24.52;44.88
18569;BME280;14780;48.316;-1.050;2023-11-19T13:42:59;99121.56;;;24.56;44.99
18569;BME280;14780;48.316;-1.050;2023-11-19T13:45:43;99118.81;;;24.56;44.98
18569;BME280;14780;48.316;-1.050;2023-11-19T13:48:28;99120.75;;;24.56;44.94
18569;BME280;14780;48.316;-1.050;2023-11-19T13:51:13;99104.88;;;24.63;44.70
18569;BME280;14780;48.316;-1.050;2023-11-19T13:53:58;99099.13;;;24.59;44.77
18569;BME280;14780;48.316;-1.050;2023-11-19T13:56:43;99102.41;;;24.61;44.73
18569;BME280;14780;48.316;-1.050;2023-11-19T13:59:29;99103.25;;;24.62;44.91
18569;BME280;14780;48.316;-1.050;2023-11-19T14:02:15;99102.41;;;24.61;44.67
18569;BME280;14780;48.316;-1.050;2023-11-19T14:05:00;99100.19;;;24.63;44.74
18569;BME280;14780;48.316;-1.050;2023-11-19T14:07:45;99094.72;;;24.63;44.64
18569;BME280;14780;48.316;-1.050;2023-11-19T14:10:33;99102.41;;;24.61;44.66
18569;BME280;14780;48.316;-1.050;2023-11-19T14:13:18;99096.94;;;24.66;44.64
18569;BME280;14780;48.316;-1.050;2023-11-19T14:16:02;99099.41;;;24.63;44.68
18569;BME280;14780;48.316;-1.050;2023-11-19T14:18:47;99092.00;;;24.68;44.50
18569;BME280;14780;48.316;-1.050;2023-11-19T14:21:33;99093.91;;;24.73;44.65
18569;BME280;14780;48.316;-1.050;2023-11-19T14:24:18;99085.97;;;24.71;44.47
18569;BME280;14780;48.316;-1.050;2023-11-19T14:27:03;99101.56;;;24.76;44.53
18569;BME280;14780;48.316;-1.050;2023-11-19T14:29:47;99094.72;;;24.73;44.51
18569;BME280;14780;48.316;-1.050;2023-11-19T14:32:32;99094.72;;;24.68;44.39
18569;BME280;14780;48.316;-1.050;2023-11-19T14:35:17;99100.19;;;24.73;44.21
18569;BME280;14780;48.316;-1.050;2023-11-19T14:38:02;99093.91;;;24.73;44.35
18569;BME280;14780;48.316;-1.050;2023-11-19T14:40:49;99095.00;;;24.67;44.33
18569;BME280;14780;48.316;-1.050;2023-11-19T14:43:34;99095.53;;;24.74;44.24